• Join FlightAware (Why Join?)
  • Login
  • US Flag 
Trick or treat! (Boo!!) 
06:15PM EDT


 

Airport Tracker/Info


-or-


 

Live Flight TrackerFlight Track Log ✈ UCA596 ✈ 16-Feb-2014 ✈ KIAD - KBGM

Flight Track Log - Related Links

Times and Time Zones

All times are in EST time to prevent confusion due to time zone crossing. See the UCA596 flight status page for this flight to view local times or setup timezone preferences in your user account.

Time Position Orientation Groundspeed Altitude Reporting Facility
EST Latitude Longitude Course Direction KTS MPH feet Rate Location/Type
01:11PM 38.9667 -77.5000 311° West 145 167 2,200  Level Potomac TRACON
01:12PM 39.0000 -77.5500 311° West 161 185 3,800 1,740 Climbing Potomac TRACON
01:14PM 39.0789 -77.5383 North 158 182 7,400 1,620 Climbing Washington Center
01:15PM 39.1272 -77.5289 North 163 188 9,000 1,680 Climbing Washington Center
01:16PM 39.1814 -77.5167 10° North 179 206 10,800 1,500 Climbing Washington Center
01:17PM 39.2358 -77.5103 North 184 212 12,000 720 Climbing Washington Center
01:18PM 39.3047 -77.4986 North 213 245 12,300 960 Climbing Washington Center
01:19PM 39.3675 -77.4922 North 226 260 14,000 1,380 Climbing Washington Center
01:20PM 39.4300 -77.4831 North 226 260 15,100 1,380 Climbing Washington Center
01:23PM 39.5772 -77.4675 North 198 228 18,900 1,080 Climbing New York Center
01:24PM 39.6364 -77.4542 10° North 196 226 19,000  Climbing New York Center
01:25PM 39.7014 -77.4497 North 224 258 19,000  Level New York Center
01:26PM 39.7681 -77.4506 359° North 242 278 19,000  Level New York Center
01:27PM 39.8369 -77.4489 North 242 278 19,000  Level New York Center
01:28PM 39.9078 -77.4503 359° North 242 278 19,000  Level New York Center
01:29PM 39.9767 -77.4489 North 242 278 19,000  Level New York Center
01:30PM 40.0403 -77.4303 13° North 247 284 19,000  Level New York Center
01:31PM 40.1178 -77.3836 25° Northeast 267 307 19,000  Level New York Center
01:32PM 40.1806 -77.3461 25° Northeast 278 320 19,000  Level New York Center
01:33PM 40.2581 -77.2989 25° Northeast 278 320 19,000  Level New York Center
01:34PM 40.3206 -77.2639 23° Northeast 278 320 19,000  Level New York Center
01:35PM 40.3961 -77.2139 27° Northeast 273 314 19,000  Level New York Center
01:36PM 40.4589 -77.1733 26° Northeast 273 314 19,000 -180 Level New York Center
01:37PM 40.5344 -77.1231 27° Northeast 273 314 18,700 -540 Descending New York Center
01:38PM 40.5994 -77.0797 27° Northeast 273 314 18,000 -660 Descending New York Center
01:39PM 40.6731 -77.0289 28° Northeast 279 321 17,400 -780 Descending New York Center
01:40PM 40.7464 -76.9808 26° Northeast 284 327 16,500 -900 Descending New York Center
01:41PM 40.8283 -76.9281 26° Northeast 292 336 15,700 -780 Descending New York Center
01:42PM 40.8931 -76.8844 27° Northeast 292 336 15,000 -360 Descending New York Center
01:43PM 40.9644 -76.8331 29° Northeast 292 336 15,000  Level New York Center
01:44PM 41.0358 -76.7844 27° Northeast 287 330 15,000  Level New York Center
01:45PM 41.1047 -76.7411 25° Northeast 281 323 15,100 -120 Climbing New York Center
01:46PM 41.1717 -76.6944 28° Northeast 276 318 14,800 -480 Descending New York Center
01:47PM 41.2492 -76.6406 28° Northeast 281 323 14,200 -600 Descending New York Center
01:48PM 41.3225 -76.5889 28° Northeast 286 329 13,600 -600 Descending New York Center
01:49PM 41.3894 -76.5450 26° Northeast 291 335 13,100 -300 Descending New York Center
01:50PM 41.4711 -76.4911 26° Northeast 291 335 13,100  Level New York Center
01:51PM 41.5422 -76.4417 27° Northeast 291 335 13,100 -60 Level New York Center
01:52PM 41.6111 -76.3947 27° Northeast 286 329 13,000 -660 Descending New York Center
01:53PM 41.6756 -76.3503 27° Northeast 286 329 11,800 -1,440 Descending New York Center
01:54PM 41.7447 -76.3003 28° Northeast 286 329 10,200 -1,680 Descending New York Center
01:55PM 41.8011 -76.2078 51° Northeast 274 315 8,500 -1,680 Descending New York Center
01:56PM 41.8481 -76.1336 50° Northeast 274 315 6,900 -1,560 Descending New York Center
01:57PM 41.8931 -76.0564 52° Northeast 264 304 5,400 -1,500 Descending New York Center
01:58PM 41.9272 -75.9950 53° Northeast 248 285 4,000 -720 Descending New York Center
01:59PM 41.9675 -75.9283 51° Northeast 232 267 4,000  Level New York Center
02:00PM 42.0011 -75.8725 51° Northeast 195 224 4,000  Level New York Center
02:01PM 42.0381 -75.8389 34° Northeast 163 188 4,000  Level New York Center
02:02PM 42.0761 -75.8697 329° Northwest 133 153 4,000  Level New York Center
02:03PM 42.1103 -75.9006 326° Northwest 140 161 4,000 -360 Level New York Center
02:04PM 42.1406 -75.9225 332° Northwest 140 161 3,300 -720 Descending New York Center
02:05PM 42.1667 -75.9467 326° Northwest 124 143 2,600 -660 Descending New York Center
02:06PM 42.1886 -75.9653 328° Northwest 119 137 2,000 -600 Descending New York Center
02:08PM 42.2000 -75.9667 North  Level FlightAware Approximate
02:15PM 42.2084 -75.9796 North  Level Estimated
02:16PM 42.2084 -75.9796 North  Level Estimated